Time;durP1;ratioP1;P1;durP2;ratioP2;P2;SDS_P1;SDS_P2;PMS_P1;PMS_P2;Temp;Humidity;BMP_temperature;BMP_pressure;BME280_temperature;BME280_humidity;BME280_pressure;Samples;Min_cycle;Max_cycle;Signal;HPM_P1;HPM_P2
2024/04/15 00:01:03;;;;;;;12.45;6.20;;;461.40;2073.60;;;;;;5419661;26;20086;-74
2024/04/15 00:03:29;;;;;;;18.23;6.30;;;461.20;2099.20;;;;;;5410772;26;19992;-73
2024/04/15 00:05:55;;;;;;;17.80;6.18;;;461.40;2099.20;;;;;;5383534;26;19993;-73
2024/04/15 00:08:21;;;;;;;27.90;7.20;;;461.40;2124.80;;;;;;5384308;26;19996;-72
2024/04/15 00:10:47;;;;;;;9.45;5.85;;;461.40;2124.80;;;;;;5401109;26;20004;-73
2024/04/15 00:13:13;;;;;;;13.48;6.20;;;461.40;2150.40;;;;;;5418974;26;20459;-73
2024/04/15 00:15:42;;;;;;;16.58;6.78;;;461.30;2176.00;;;;;;5419600;26;19996;-73
2024/04/15 00:18:08;;;;;;;17.55;7.15;;;461.20;2201.60;;;;;;5418829;26;20003;-73
2024/04/15 00:20:34;;;;;;;23.48;6.57;;;461.30;2201.60;;;;;;5419367;26;20072;-74
2024/04/15 00:23:00;;;;;;;14.23;6.32;;;461.30;2227.20;;;;;;5419003;26;20443;-74
2024/04/15 00:25:26;;;;;;;18.13;7.22;;;461.30;2227.20;;;;;;5418956;26;20027;-73
2024/04/15 00:27:52;;;;;;;14.35;6.47;;;461.40;2252.80;;;;;;5419052;26;20018;-72
2024/04/15 00:30:18;;;;;;;16.67;6.90;;;461.40;2252.80;;;;;;5419251;26;20014;-73
2024/04/15 00:32:44;;;;;;;16.92;6.82;;;461.50;2252.80;;;;;;5419086;26;19996;-73
2024/04/15 00:35:09;;;;;;;13.98;6.82;;;461.60;2252.80;;;;;;5419152;26;20000;-72
2024/04/15 00:37:35;;;;;;;16.33;7.10;;;461.50;2252.80;;;;;;5418855;26;19999;-73
2024/04/15 00:40:01;;;;;;;12.65;7.13;;;461.50;2278.40;;;;;;5419369;26;19991;-73
2024/04/15 00:42:27;;;;;;;16.25;7.72;;;461.40;2278.40;;;;;;5419088;26;20405;-73
2024/04/15 00:44:53;;;;;;;17.13;7.20;;;461.40;2329.60;;;;;;5417508;26;20014;-73
2024/04/15 00:47:19;;;;;;;12.27;6.75;;;461.30;2355.20;;;;;;5418757;26;20000;-75
2024/04/15 00:49:45;;;;;;;14.10;7.47;;;461.30;2380.80;;;;;;5418995;26;20003;-75
2024/04/15 00:52:12;;;;;;;19.50;7.65;;;461.20;2380.80;;;;;;5418429;26;20320;-74
2024/04/15 00:54:42;;;;;;;17.27;7.53;;;461.20;2380.80;;;;;;5418918;26;20440;-72
2024/04/15 00:57:08;;;;;;;18.60;8.05;;;461.10;2380.80;;;;;;5418639;26;20014;-72
2024/04/15 00:59:37;;;;;;;14.18;7.03;;;461.10;2380.80;;;;;;5418639;26;20339;-74
2024/04/15 01:02:04;;;;;;;14.30;7.45;;;461.20;2380.80;;;;;;5418681;26;20088;-72
2024/04/15 01:04:30;;;;;;;11.45;6.82;;;461.10;2380.80;;;;;;5418546;26;20014;-73
2024/04/15 01:06:57;;;;;;;17.85;6.95;;;461.20;2380.80;;;;;;5418439;26;20440;-73
2024/04/15 01:09:23;;;;;;;22.55;7.22;;;461.20;2380.80;;;;;;5418398;26;20012;-73
2024/04/15 01:11:49;;;;;;;11.98;6.70;;;461.20;2380.80;;;;;;5418694;26;20444;-74
2024/04/15 01:14:15;;;;;;;11.13;6.75;;;461.20;2380.80;;;;;;5418119;26;20080;-73
2024/04/15 01:16:41;;;;;;;11.63;6.82;;;461.10;2380.80;;;;;;5418690;26;20011;-74
2024/04/15 01:19:07;;;;;;;12.75;6.93;;;461.00;2380.80;;;;;;5418371;26;19995;-74
2024/04/15 01:21:33;;;;;;;14.13;6.82;;;461.00;2380.80;;;;;;5418300;26;20014;-74
2024/04/15 01:24:02;;;;;;;10.88;6.85;;;461.10;2380.80;;;;;;5418351;26;20072;-73
2024/04/15 01:26:31;;;;;;;12.82;7.68;;;461.20;2380.80;;;;;;5418220;26;20011;-75
2024/04/15 01:28:58;;;;;;;14.63;7.50;;;461.20;2380.80;;;;;;5418100;26;20080;-74
2024/04/15 01:31:24;;;;;;;15.52;7.57;;;461.30;2380.80;;;;;;5418454;26;20003;-73
2024/04/15 01:33:51;;;;;;;21.00;8.30;;;461.20;2380.80;;;;;;5418409;26;20080;-73
2024/04/15 01:36:16;;;;;;;15.68;7.25;;;461.20;2380.80;;;;;;5418313;26;20007;-74
2024/04/15 01:38:42;;;;;;;16.10;7.30;;;461.10;2380.80;;;;;;5418252;26;19995;-73
2024/04/15 01:41:08;;;;;;;19.20;7.13;;;461.10;2380.80;;;;;;5418604;26;20022;-73
2024/04/15 01:43:34;;;;;;;14.65;7.50;;;460.90;2380.80;;;;;;5418046;26;19991;-73
2024/04/15 01:46:00;;;;;;;19.50;8.32;;;461.00;2380.80;;;;;;5398544;26;20004;-73
2024/04/15 01:48:25;;;;;;;16.48;7.25;;;461.00;2380.80;;;;;;5414070;26;19996;-72
2024/04/15 01:50:51;;;;;;;15.73;8.35;;;460.90;2380.80;;;;;;5417621;26;20000;-73
2024/04/15 01:53:17;;;;;;;19.67;8.52;;;460.80;2380.80;;;;;;5417700;26;20439;-72
2024/04/15 01:55:43;;;;;;;19.58;9.02;;;436.10;2355.20;;;;;;5417197;26;20003;-73
2024/04/15 01:58:09;;;;;;;14.43;8.38;;;436.10;2355.20;;;;;;5417779;26;20006;-73
2024/04/15 02:00:35;;;;;;;20.58;8.77;;;436.00;2355.20;;;;;;5418036;26;20014;-72
2024/04/15 02:03:01;;;;;;;16.38;8.68;;;435.90;2355.20;;;;;;5417555;26;20006;-73
2024/04/15 02:05:27;;;;;;;14.32;8.57;;;435.80;2355.20;;;;;;5417647;26;20003;-73
2024/04/15 02:07:56;;;;;;;19.73;9.23;;;435.80;2355.20;;;;;;5417211;26;20327;-72
2024/04/15 02:10:22;;;;;;;21.75;8.60;;;435.80;2355.20;;;;;;5417826;26;19999;-72
2024/04/15 02:12:48;;;;;;;16.15;8.82;;;435.80;2355.20;;;;;;5417303;26;20028;-74
2024/04/15 02:15:15;;;;;;;16.35;8.68;;;435.70;2355.20;;;;;;5417680;26;20011;-72
2024/04/15 02:17:41;;;;;;;18.20;8.43;;;435.60;2355.20;;;;;;5417637;26;19991;-73
2024/04/15 02:20:08;;;;;;;20.05;9.63;;;435.70;2355.20;;;;;;5417595;26;20015;-73
2024/04/15 02:22:34;;;;;;;13.10;8.30;;;435.70;2355.20;;;;;;5417270;26;20007;-73
2024/04/15 02:25:00;;;;;;;18.75;10.23;;;435.60;2355.20;;;;;;5417561;26;20014;-73
2024/04/15 02:27:26;;;;;;;20.52;8.75;;;435.50;2355.20;;;;;;5416980;26;19996;-72
2024/04/15 02:29:52;;;;;;;18.08;10.35;;;435.40;2355.20;;;;;;5417244;26;20000;-73
2024/04/15 02:32:19;;;;;;;17.58;8.25;;;435.30;2355.20;;;;;;5417415;26;20000;-73
2024/04/15 02:34:45;;;;;;;15.88;8.27;;;435.20;2355.20;;;;;;5417346;26;19999;-72
2024/04/15 02:37:11;;;;;;;16.58;8.25;;;410.50;2355.20;;;;;;5417453;26;20507;-73
2024/04/15 02:39:38;;;;;;;17.13;9.00;;;410.50;2355.20;;;;;;5417220;26;20012;-74
2024/04/15 02:42:05;;;;;;;18.13;8.88;;;410.50;2355.20;;;;;;5415297;26;20541;-73
2024/04/15 02:44:31;;;;;;;25.25;8.40;;;410.40;2355.20;;;;;;5417159;26;20010;-72
2024/04/15 02:46:57;;;;;;;17.60;9.90;;;410.40;2355.20;;;;;;5416758;26;20003;-73
2024/04/15 02:49:22;;;;;;;18.08;9.75;;;410.30;2355.20;;;;;;5417107;26;20014;-73
2024/04/15 02:51:48;;;;;;;16.83;9.63;;;410.20;2355.20;;;;;;5416716;26;20010;-73
2024/04/15 02:54:14;;;;;;;18.73;9.60;;;410.10;2355.20;;;;;;5416675;26;19996;-73
2024/04/15 02:56:41;;;;;;;21.33;9.98;;;410.10;2355.20;;;;;;5417474;26;20103;-72
2024/04/15 02:59:07;;;;;;;17.63;9.27;;;410.20;2355.20;;;;;;5416755;26;19992;-74
2024/04/15 03:01:33;;;;;;;14.13;9.27;;;410.20;2355.20;;;;;;5416331;26;20018;-72
2024/04/15 03:03:59;;;;;;;18.70;8.02;;;410.40;2355.20;;;;;;5416541;26;19995;-72
2024/04/15 03:06:24;;;;;;;22.00;8.50;;;410.30;2355.20;;;;;;5415820;26;20011;-73
2024/04/15 03:08:50;;;;;;;17.48;8.60;;;410.20;2355.20;;;;;;5419796;26;20458;-72
2024/04/15 03:11:16;;;;;;;16.45;10.05;;;410.20;2355.20;;;;;;5420147;26;20339;-72
2024/04/15 03:13:42;;;;;;;22.27;10.00;;;410.10;2355.20;;;;;;5420063;26;20020;-72
2024/04/15 03:16:08;;;;;;;20.92;9.43;;;410.20;2355.20;;;;;;5420348;26;20014;-73
2024/04/15 03:18:34;;;;;;;15.23;9.07;;;410.20;2355.20;;;;;;5420096;26;20010;-73
2024/04/15 03:21:10;;;;;;;22.70;9.88;;;410.20;2355.20;;;;;;5420215;26;20028;-73
2024/04/15 03:23:36;;;;;;;23.05;9.68;;;410.00;2355.20;;;;;;5419965;26;20011;-73
2024/04/15 03:26:02;;;;;;;23.67;9.93;;;410.10;2355.20;;;;;;5419772;26;19992;-72
2024/04/15 03:28:28;;;;;;;24.85;10.77;;;410.20;2355.20;;;;;;5419979;26;20431;-72
2024/04/15 03:30:53;;;;;;;14.40;9.57;;;410.00;2355.20;;;;;;5420088;26;20076;-72
2024/04/15 03:33:19;;;;;;;16.75;10.35;;;410.00;2355.20;;;;;;5419647;26;20081;-73
2024/04/15 03:35:45;;;;;;;18.60;9.70;;;410.00;2355.20;;;;;;5419854;26;20003;-72
2024/04/15 03:38:11;;;;;;;17.83;10.30;;;410.00;2355.20;;;;;;5419862;26;20004;-72
2024/04/15 03:40:37;;;;;;;18.50;10.15;;;410.00;2355.20;;;;;;5420050;26;19995;-73
2024/04/15 03:43:03;;;;;;;21.40;9.68;;;410.00;2355.20;;;;;;5419828;26;20072;-73
2024/04/15 03:45:29;;;;;;;19.40;9.60;;;410.00;2355.20;;;;;;5419954;26;20010;-74
2024/04/15 03:47:55;;;;;;;24.98;10.05;;;410.00;2355.20;;;;;;5419012;26;20003;-72
2024/04/15 03:50:23;;;;;;;18.90;10.02;;;409.90;2355.20;;;;;;5419816;26;20007;-73
2024/04/15 03:52:49;;;;;;;13.48;8.80;;;410.00;2355.20;;;;;;5419618;26;20000;-73
2024/04/15 03:55:15;;;;;;;18.50;9.25;;;410.00;2355.20;;;;;;5418776;26;20076;-72
2024/04/15 03:57:41;;;;;;;18.77;10.00;;;410.00;2355.20;;;;;;5419546;26;20011;-72
2024/04/15 04:00:07;;;;;;;15.23;9.18;;;409.90;2355.20;;;;;;5419431;26;19996;-73
2024/04/15 04:02:33;;;;;;;23.42;10.25;;;410.00;2355.20;;;;;;5419165;26;20018;-73
2024/04/15 04:04:59;;;;;;;16.88;9.02;;;409.90;2355.20;;;;;;5419245;26;20011;-72
2024/04/15 04:07:25;;;;;;;18.05;8.38;;;410.00;2355.20;;;;;;5419687;26;20035;-74
2024/04/15 04:09:51;;;;;;;17.15;8.65;;;410.20;2355.20;;;;;;5419189;26;20011;-72
2024/04/15 04:12:17;;;;;;;15.90;9.00;;;410.00;2355.20;;;;;;5419634;26;19995;-73
2024/04/15 04:14:43;;;;;;;16.92;9.52;;;409.90;2355.20;;;;;;5395802;26;20003;-73
2024/04/15 04:17:09;;;;;;;20.63;8.65;;;409.70;2355.20;;;;;;5417533;26;20004;-73
2024/04/15 04:19:35;;;;;;;14.32;8.40;;;409.70;2355.20;;;;;;5396185;26;19999;-72
2024/04/15 04:22:01;;;;;;;18.73;8.35;;;409.80;2355.20;;;;;;5419287;26;20363;-72
2024/04/15 04:24:29;;;;;;;14.55;8.70;;;409.80;2355.20;;;;;;5395664;26;19995;-72
2024/04/15 04:26:55;;;;;;;16.40;9.38;;;409.90;2355.20;;;;;;5418510;26;20014;-72
2024/04/15 04:29:21;;;;;;;15.75;8.98;;;409.90;2355.20;;;;;;5418587;26;20006;-74
2024/04/15 04:31:47;;;;;;;21.48;9.18;;;410.00;2355.20;;;;;;5419167;26;20442;-74
2024/04/15 04:34:13;;;;;;;20.92;9.45;;;410.00;2355.20;;;;;;5419098;26;20004;-74
2024/04/15 04:36:39;;;;;;;16.23;8.75;;;410.00;2355.20;;;;;;5419466;26;19995;-74
2024/04/15 04:39:05;;;;;;;16.35;8.98;;;410.00;2355.20;;;;;;5418732;26;20018;-73
2024/04/15 04:41:31;;;;;;;19.17;9.00;;;410.10;2355.20;;;;;;5403390;26;19996;-72
2024/04/15 04:43:57;;;;;;;15.70;9.00;;;410.20;2355.20;;;;;;5398068;26;20065;-73
2024/04/15 04:46:23;;;;;;;18.77;10.07;;;410.10;2355.20;;;;;;5401147;26;20369;-72
2024/04/15 04:48:51;;;;;;;17.65;9.50;;;410.20;2355.20;;;;;;5390175;26;20010;-73
2024/04/15 04:51:17;;;;;;;25.38;9.95;;;410.30;2355.20;;;;;;5387429;26;20505;-73
2024/04/15 04:53:43;;;;;;;17.00;9.63;;;410.40;2355.20;;;;;;5389584;26;20011;-72
2024/04/15 04:56:13;;;;;;;17.65;8.93;;;410.40;2355.20;;;;;;5393945;26;19995;-73
2024/04/15 04:58:41;;;;;;;21.00;8.57;;;435.30;2355.20;;;;;;5396119;26;20012;-72
2024/04/15 05:01:14;;;;;;;13.52;8.68;;;435.40;2355.20;;;;;;5391843;26;20042;-80
2024/04/15 05:03:44;;;;;;;17.75;9.27;;;435.50;2355.20;;;;;;5388193;26;19992;-73
2024/04/15 05:06:10;;;;;;;21.02;9.23;;;435.70;2355.20;;;;;;5405289;26;20011;-73
2024/04/15 05:08:37;;;;;;;18.35;9.00;;;435.60;2355.20;;;;;;5389981;26;20000;-72
2024/04/15 05:11:04;;;;;;;22.52;9.05;;;435.70;2355.20;;;;;;5393448;26;20076;-74
2024/04/15 05:13:30;;;;;;;17.40;9.20;;;435.80;2355.20;;;;;;5403155;26;19999;-73
2024/04/15 05:16:10;;;;;;;15.90;9.48;;;435.90;2355.20;;;;;;5406254;26;20000;-73
2024/04/15 05:18:37;;;;;;;13.32;8.05;;;436.00;2355.20;;;;;;5402653;26;19996;-72
2024/04/15 05:21:04;;;;;;;29.23;9.90;;;436.00;2355.20;;;;;;5395836;26;20008;-73
2024/04/15 05:23:30;;;;;;;15.23;8.80;;;435.80;2355.20;;;;;;5391854;26;20436;-73
2024/04/15 05:25:58;;;;;;;15.90;9.02;;;435.90;2355.20;;;;;;5406305;26;20018;-74
2024/04/15 05:28:25;;;;;;;18.08;8.20;;;436.10;2355.20;;;;;;5398752;26;20011;-72
2024/04/15 05:30:55;;;;;;;14.10;8.80;;;460.80;2380.80;;;;;;5390469;26;20106;-73
2024/04/15 05:33:21;;;;;;;16.70;9.60;;;460.80;2380.80;;;;;;5402154;26;20004;-74
2024/04/15 05:35:47;;;;;;;17.17;9.60;;;460.90;2380.80;;;;;;5390538;26;20099;-74
2024/04/15 05:38:14;;;;;;;15.35;9.15;;;461.00;2380.80;;;;;;5399337;26;20402;-74
2024/04/15 05:40:40;;;;;;;13.13;8.50;;;461.10;2380.80;;;;;;5391658;26;20072;-73
2024/04/15 05:43:10;;;;;;;13.80;9.00;;;461.00;2380.80;;;;;;5400359;26;19996;-72
2024/04/15 05:45:37;;;;;;;16.35;9.43;;;461.20;2380.80;;;;;;5393154;26;19997;-73
2024/04/15 05:48:04;;;;;;;16.58;8.50;;;461.30;2380.80;;;;;;5407872;26;20039;-73
2024/04/15 05:50:30;;;;;;;22.00;8.73;;;461.50;2380.80;;;;;;5396127;26;19996;-73
2024/04/15 05:52:56;;;;;;;16.85;9.02;;;461.50;2380.80;;;;;;5404966;26;20012;-74
2024/04/15 05:55:22;;;;;;;13.57;8.20;;;461.70;2380.80;;;;;;5394403;26;20007;-77
2024/04/15 05:57:48;;;;;;;16.00;8.18;;;461.70;2380.80;;;;;;5400983;26;20015;-73
2024/04/15 06:00:14;;;;;;;13.38;8.25;;;461.70;2380.80;;;;;;5400691;26;20000;-74
2024/04/15 06:02:41;;;;;;;20.00;8.82;;;486.40;2380.80;;;;;;5394163;26;19996;-74
2024/04/15 06:05:07;;;;;;;18.00;8.38;;;486.50;2380.80;;;;;;5404014;26;20000;-74
2024/04/15 06:07:33;;;;;;;15.45;8.23;;;486.60;2380.80;;;;;;5406450;26;19999;-77
2024/04/15 06:09:59;;;;;;;17.92;8.52;;;486.70;2380.80;;;;;;5394899;26;20309;-72
2024/04/15 06:12:28;;;;;;;15.93;8.77;;;486.80;2380.80;;;;;;5406430;26;20080;-74
2024/04/15 06:14:55;;;;;;;15.32;8.02;;;487.00;2380.80;;;;;;5402584;26;20006;-74
2024/04/15 06:17:20;;;;;;;13.00;8.10;;;487.30;2380.80;;;;;;5398637;26;20448;-75
2024/04/15 06:19:46;;;;;;;15.57;8.35;;;487.30;2380.80;;;;;;5405544;26;19992;-73
2024/04/15 06:22:12;;;;;;;26.42;8.77;;;487.30;2380.80;;;;;;5412141;26;20000;-74
2024/04/15 06:24:38;;;;;;;16.92;7.90;;;512.00;2380.80;;;;;;5395272;26;20014;-74
2024/04/15 06:27:04;;;;;;;19.63;8.40;;;512.10;2380.80;;;;;;5395725;26;20007;-74
2024/04/15 06:29:30;;;;;;;15.70;8.50;;;512.70;2380.80;;;;;;5395310;26;20044;-74
2024/04/15 06:31:55;;;;;;;15.68;8.35;;;512.50;2380.80;;;;;;5401856;26;19996;-72
2024/04/15 06:34:24;;;;;;;16.15;7.38;;;512.70;2380.80;;;;;;5411084;26;20101;-74
2024/04/15 06:36:52;;;;;;;14.50;7.40;;;512.80;2380.80;;;;;;5399536;26;20007;-73
2024/04/15 06:39:17;;;;;;;12.60;7.20;;;537.70;2406.40;;;;;;5401458;26;20000;-71
2024/04/15 06:41:44;;;;;;;16.05;7.78;;;;;;;;;;5393626;26;19996;-74
2024/04/15 06:44:11;;;;;;;16.92;7.97;;;538.20;2329.60;;;;;;5394403;26;20428;-73
2024/04/15 06:46:37;;;;;;;18.70;7.40;;;538.20;2329.60;;;;;;5396301;26;20011;-74
2024/04/15 06:49:03;;;;;;;17.58;7.60;;;538.40;2278.40;;;;;;5404929;26;19991;-74
2024/04/15 06:51:29;;;;;;;15.30;6.70;;;563.20;2304.00;;;;;;5400600;26;20468;-72
2024/04/15 06:53:55;;;;;;;17.67;6.90;;;563.40;2304.00;;;;;;5391696;26;20065;-73
2024/04/15 06:56:21;;;;;;;17.20;7.75;;;563.60;2252.80;;;;;;5401627;26;20000;-74
2024/04/15 06:58:47;;;;;;;17.95;7.32;;;563.70;2227.20;;;;;;5396093;26;20446;-74
2024/04/15 07:01:13;;;;;;;13.93;6.43;;;564.10;2201.60;;;;;;5417747;26;19999;-73
2024/04/15 07:03:39;;;;;;;12.05;5.85;;;564.10;2176.00;;;;;;5406002;26;20442;-73
2024/04/15 07:06:04;;;;;;;16.45;6.82;;;588.80;2124.80;;;;;;5403077;26;20050;-72
2024/04/15 07:08:30;;;;;;;13.15;6.53;;;589.20;2073.60;;;;;;5396363;26;20008;-72
2024/04/15 07:10:56;;;;;;;12.32;6.30;;;589.60;2022.40;;;;;;5408202;26;20003;-72
2024/04/15 07:13:23;;;;;;;13.50;6.38;;;;;;;;;;5403746;26;19991;-73
2024/04/15 07:15:49;;;;;;;12.27;6.53;;;614.70;1894.40;;;;;;5393131;26;19995;-73
2024/04/15 07:18:14;;;;;;;12.07;5.68;;;614.90;1868.80;;;;;;5396431;26;20008;-74
2024/04/15 07:20:41;;;;;;;12.85;6.40;;;615.10;1868.80;;;;;;5390066;26;20015;-74
2024/04/15 07:23:06;;;;;;;10.48;5.72;;;615.10;1843.20;;;;;;5392841;26;19995;-74
2024/04/15 07:25:32;;;;;;;13.25;5.55;;;640.10;1792.00;;;;;;5401527;26;20000;-74
2024/04/15 07:27:58;;;;;;;13.48;6.28;;;640.10;1766.40;;;;;;5410217;26;20019;-75
2024/04/15 07:30:24;;;;;;;9.82;5.70;;;640.40;1740.80;;;;;;5391149;26;20416;-73
2024/04/15 07:32:51;;;;;;;14.80;5.45;;;640.70;1766.40;;;;;;5402156;26;20008;-73
2024/04/15 07:35:18;;;;;;;16.60;6.07;;;665.60;1740.80;;;;;;5407739;26;20015;-74
2024/04/15 07:37:45;;;;;;;8.55;4.78;;;665.70;1664.00;;;;;;5399752;26;20000;-73
2024/04/15 07:40:11;;;;;;;13.23;5.63;;;665.70;1638.40;;;;;;5412385;26;20000;-75
2024/04/15 07:42:39;;;;;;;13.90;5.55;;;666.10;1612.80;;;;;;5395640;26;20003;-71
2024/04/15 07:45:06;;;;;;;12.52;5.05;;;666.50;1612.80;;;;;;5391910;26;20012;-73
2024/04/15 07:47:32;;;;;;;10.48;4.57;;;691.20;1536.00;;;;;;5399350;26;20039;-73
2024/04/15 07:49:57;;;;;;;11.98;5.03;;;691.40;1510.40;;;;;;5395436;26;20347;-74
2024/04/15 07:52:23;;;;;;;11.75;5.22;;;691.40;1484.80;;;;;;5391379;26;20000;-73
2024/04/15 07:54:50;;;;;;;7.72;4.88;;;691.80;1484.80;;;;;;5388392;26;19996;-73
2024/04/15 07:57:16;;;;;;;10.73;5.00;;;692.00;1459.20;;;;;;5388649;26;19992;-73
2024/04/15 07:59:42;;;;;;;15.40;5.63;;;692.10;1433.60;;;;;;5408794;26;20010;-73
2024/04/15 08:02:09;;;;;;;10.45;5.38;;;692.10;1433.60;;;;;;5400004;26;20070;-73
2024/04/15 08:04:35;;;;;;;13.45;5.05;;;716.90;1459.20;;;;;;5397119;26;20000;-74
2024/04/15 08:07:01;;;;;;;8.43;5.50;;;716.90;1433.60;;;;;;5391587;26;20010;-73
2024/04/15 08:09:27;;;;;;;12.90;5.43;;;717.20;1459.20;;;;;;5403729;26;20435;-73
2024/04/15 08:11:53;;;;;;;18.13;5.00;;;717.30;1433.60;;;;;;5399475;26;20007;-74
2024/04/15 08:14:20;;;;;;;8.60;4.60;;;717.50;1408.00;;;;;;5391444;26;19996;-73
2024/04/15 08:16:46;;;;;;;12.63;5.45;;;717.60;1408.00;;;;;;5398002;26;20000;-73
2024/04/15 08:19:12;;;;;;;11.25;5.43;;;742.40;1382.40;;;;;;5407839;26;20323;-75
2024/04/15 08:21:38;;;;;;;8.73;5.53;;;742.80;1356.80;;;;;;5406207;26;19999;-73
2024/04/15 08:24:04;;;;;;;14.48;5.63;;;742.90;1382.40;;;;;;5394119;26;20029;-73
2024/04/15 08:26:30;;;;;;;11.75;5.38;;;742.80;1331.20;;;;;;5382846;26;20004;-72
2024/04/15 08:28:56;;;;;;;11.20;5.80;;;743.00;1305.60;;;;;;5403808;26;19999;-76
2024/04/15 08:31:22;;;;;;;12.85;5.63;;;743.10;1280.00;;;;;;5389835;26;20014;-73
2024/04/15 08:33:48;;;;;;;12.82;5.85;;;743.10;1254.40;;;;;;5391056;26;20004;-75
2024/04/15 08:36:15;;;;;;;14.07;6.15;;;743.30;1280.00;;;;;;5397564;26;20034;-74
2024/04/15 08:38:44;;;;;;;11.93;5.07;;;743.10;1254.40;;;;;;5398726;26;20011;-73
2024/04/15 08:41:19;;;;;;;11.35;5.47;;;768.00;1280.00;;;;;;5390292;26;20006;-74
2024/04/15 08:43:47;;;;;;;12.60;5.55;;;768.10;1254.40;;;;;;5388023;26;20011;-73
2024/04/15 08:46:21;;;;;;;12.80;6.07;;;768.50;1254.40;;;;;;5393403;26;20090;-73
2024/04/15 08:48:47;;;;;;;13.95;5.75;;;768.70;1228.80;;;;;;5389383;26;20008;-74
2024/04/15 08:51:15;;;;;;;9.73;5.18;;;;;;;;;;5400082;26;20006;-73
2024/04/15 08:53:40;;;;;;;12.52;4.72;;;793.80;1177.60;;;;;;5399601;26;20004;-72
2024/04/15 08:56:06;;;;;;;17.38;5.75;;;793.90;1177.60;;;;;;5385324;26;20083;-75
2024/04/15 08:58:33;;;;;;;9.82;4.50;;;793.90;1203.20;;;;;;5393825;26;20007;-73
2024/04/15 09:01:00;;;;;;;10.15;4.13;;;793.80;1126.40;;;;;;5417367;26;20015;-74
2024/04/15 09:03:27;;;;;;;9.88;4.32;;;794.10;1100.80;;;;;;5403782;26;20011;-72
2024/04/15 09:05:53;;;;;;;9.35;4.00;;;794.20;1049.60;;;;;;5388190;26;20007;-72
2024/04/15 09:08:18;;;;;;;7.10;3.70;;;794.40;1049.60;;;;;;5387816;26;20004;-72
2024/04/15 09:10:44;;;;;;;8.40;3.97;;;794.40;1049.60;;;;;;5404093;26;20003;-74
2024/04/15 09:13:10;;;;;;;9.27;3.13;;;819.30;1049.60;;;;;;5393410;26;20327;-73
2024/04/15 09:15:36;;;;;;;9.27;3.80;;;819.20;972.80;;;;;;5390557;26;20016;-72
2024/04/15 09:18:03;;;;;;;6.80;3.45;;;819.30;972.80;;;;;;5388649;26;20008;-72
2024/04/15 09:20:29;;;;;;;11.32;3.33;;;819.30;998.40;;;;;;5401718;26;20472;-76
2024/04/15 09:22:55;;;;;;;6.60;3.33;;;819.40;972.80;;;;;;5410671;26;20069;-72
2024/04/15 09:25:22;;;;;;;7.60;3.00;;;819.60;998.40;;;;;;5388668;26;19995;-72
2024/04/15 09:27:47;;;;;;;7.32;3.17;;;819.90;972.80;;;;;;5405939;26;20082;-73
2024/04/15 09:30:14;;;;;;;5.53;3.38;;;820.10;947.20;;;;;;5406494;26;20077;-72
2024/04/15 09:32:42;;;;;;;7.20;3.10;;;820.10;998.40;;;;;;5388799;26;19999;-73
2024/04/15 09:35:08;;;;;;;11.13;3.65;;;819.90;947.20;;;;;;5400216;26;20346;-72
2024/04/15 09:37:35;;;;;;;6.07;3.33;;;819.90;972.80;;;;;;5400920;26;19992;-72
2024/04/15 09:40:13;;;;;;;4.03;2.72;;;820.10;947.20;;;;;;5394254;26;20442;-72
2024/04/15 09:42:41;;;;;;;5.45;3.25;;;820.10;947.20;;;;;;5396323;26;20077;-73
2024/04/15 09:45:09;;;;;;;8.05;2.92;;;845.10;972.80;;;;;;5400351;26;20004;-71
2024/04/15 09:47:36;;;;;;;8.05;3.47;;;845.20;972.80;;;;;;5397595;26;19996;-73
2024/04/15 09:50:02;;;;;;;11.13;3.78;;;845.20;947.20;;;;;;5407786;26;20023;-71
2024/04/15 09:52:31;;;;;;;7.00;3.10;;;845.10;972.80;;;;;;5390445;26;20010;-71
2024/04/15 09:55:23;;;;;;;5.88;2.97;;;845.20;947.20;;;;;;5408134;26;20072;-73
2024/04/15 09:57:52;;;;;;;10.30;3.35;;;845.40;921.60;;;;;;5390207;26;20370;-72
2024/04/15 10:00:19;;;;;;;7.57;3.10;;;845.40;921.60;;;;;;5406241;26;20000;-73
2024/04/15 10:02:57;;;;;;;5.50;3.10;;;845.10;947.20;;;;;;5414610;26;20081;-74
2024/04/15 10:05:25;;;;;;;8.23;3.05;;;845.30;921.60;;;;;;5388277;26;20015;-72
2024/04/15 10:07:58;;;;;;;4.53;2.70;;;845.70;896.00;;;;;;5386328;26;20008;-74
2024/04/15 10:10:26;;;;;;;9.38;2.92;;;845.70;921.60;;;;;;5409886;26;20024;-70
2024/04/15 10:12:55;;;;;;;8.48;3.30;;;870.40;896.00;;;;;;5393016;26;20000;-73
2024/04/15 10:15:23;;;;;;;8.75;2.80;;;870.50;896.00;;;;;;5399461;26;20004;-72
2024/04/15 10:18:11;;;;;;;9.02;3.40;;;870.40;896.00;;;;;;5389562;26;20000;-72
2024/04/15 10:20:40;;;;;;;10.52;2.88;;;845.40;921.60;;;;;;5389198;26;20077;-72
2024/04/15 10:23:07;;;;;;;6.50;3.13;;;870.40;921.60;;;;;;5386428;26;20084;-70
2024/04/15 10:25:37;;;;;;;8.45;3.13;;;870.70;921.60;;;;;;5381901;26;20007;-72
2024/04/15 10:28:07;;;;;;;5.60;3.17;;;870.60;896.00;;;;;;5390061;26;19996;-72
2024/04/15 10:30:33;;;;;;;7.70;2.90;;;870.60;896.00;;;;;;5391409;26;20007;-76
2024/04/15 10:33:05;;;;;;;6.93;3.15;;;845.40;896.00;;;;;;5387719;26;20069;-71
2024/04/15 10:35:36;;;;;;;14.98;3.42;;;870.70;870.40;;;;;;5396123;26;20440;-73
2024/04/15 10:38:04;;;;;;;9.15;2.83;;;870.50;870.40;;;;;;5392814;26;20028;-73
2024/04/15 10:40:36;;;;;;;8.88;3.22;;;845.70;896.00;;;;;;5413689;26;19999;-71
2024/04/15 10:43:03;;;;;;;4.97;2.83;;;870.50;870.40;;;;;;5386919;26;20439;-75
2024/04/15 10:45:29;;;;;;;6.68;3.30;;;870.50;870.40;;;;;;5401727;26;19995;-72
2024/04/15 10:47:55;;;;;;;6.78;3.45;;;870.70;870.40;;;;;;5397410;26;20073;-71
2024/04/15 10:50:22;;;;;;;13.75;3.80;;;870.70;896.00;;;;;;5405391;26;20032;-71
2024/04/15 10:52:51;;;;;;;4.97;2.65;;;870.70;947.20;;;;;;5412478;26;20011;-75
2024/04/15 10:55:17;;;;;;;9.90;3.20;;;870.90;896.00;;;;;;5381210;26;20407;-72
2024/04/15 10:57:45;;;;;;;6.43;3.10;;;870.70;896.00;;;;;;5386656;26;20011;-76
2024/04/15 11:00:12;;;;;;;7.57;3.38;;;870.80;896.00;;;;;;5394845;26;20474;-72
2024/04/15 11:02:42;;;;;;;6.63;3.15;;;870.90;896.00;;;;;;5405145;26;20015;-72
2024/04/15 11:05:12;;;;;;;8.23;3.35;;;870.90;870.40;;;;;;5397682;26;20032;-73
2024/04/15 11:07:41;;;;;;;8.52;3.33;;;870.90;896.00;;;;;;5385782;26;20011;-73
2024/04/15 11:10:09;;;;;;;8.80;3.35;;;871.10;896.00;;;;;;5398019;26;20428;-73
2024/04/15 11:12:36;;;;;;;9.35;3.22;;;871.10;896.00;;;;;;5392654;26;20078;-73
2024/04/15 11:15:03;;;;;;;6.53;2.92;;;871.30;896.00;;;;;;5391228;26;20000;-75
2024/04/15 11:17:30;;;;;;;15.75;3.60;;;871.10;896.00;;;;;;5396333;26;19992;-75
2024/04/15 11:20:01;;;;;;;9.80;4.45;;;871.10;921.60;;;;;;5399306;26;20344;-74
2024/04/15 11:22:27;;;;;;;6.00;3.05;;;871.10;896.00;;;;;;5396029;26;19996;-73
2024/04/15 11:24:53;;;;;;;6.50;3.05;;;871.00;896.00;;;;;;5387263;26;20023;-73
2024/04/15 11:27:20;;;;;;;6.97;3.17;;;870.80;896.00;;;;;;5391268;26;20317;-74
2024/04/15 11:29:47;;;;;;;8.10;4.22;;;870.90;896.00;;;;;;5405311;26;20405;-73
2024/04/15 11:32:14;;;;;;;9.93;4.13;;;870.80;921.60;;;;;;5402263;26;19996;-74
2024/04/15 11:34:40;;;;;;;8.13;3.60;;;870.90;896.00;;;;;;5402956;26;20361;-74
2024/04/15 11:37:08;;;;;;;6.82;3.22;;;870.80;896.00;;;;;;5404526;26;19995;-74
2024/04/15 11:39:34;;;;;;;8.80;3.58;;;870.90;870.40;;;;;;5411777;26;20023;-75
2024/04/15 11:42:00;;;;;;;11.48;3.75;;;870.90;870.40;;;;;;5398680;26;20166;-73
2024/04/15 11:44:26;;;;;;;6.65;3.22;;;871.10;896.00;;;;;;5404758;26;20402;-74
2024/04/15 11:46:56;;;;;;;12.02;3.70;;;870.90;870.40;;;;;;5405930;26;20008;-74
2024/04/15 11:49:22;;;;;;;7.55;3.15;;;870.90;870.40;;;;;;5405894;26;20007;-73
2024/04/15 11:51:48;;;;;;;6.20;3.58;;;870.90;896.00;;;;;;5403015;26;20012;-73
2024/04/15 11:54:14;;;;;;;7.03;3.28;;;870.90;896.00;;;;;;5405568;26;19996;-73
2024/04/15 11:56:40;;;;;;;6.30;3.50;;;870.90;896.00;;;;;;5417250;26;20064;-73
2024/04/15 11:59:07;;;;;;;10.75;3.88;;;870.90;896.00;;;;;;5411483;26;19996;-74
2024/04/15 12:01:33;;;;;;;8.60;3.75;;;871.10;870.40;;;;;;5415702;26;20018;-74
2024/04/15 12:03:59;;;;;;;16.10;4.55;;;871.10;896.00;;;;;;5400049;26;20000;-73
2024/04/15 12:06:25;;;;;;;9.43;3.72;;;871.30;870.40;;;;;;5399028;26;20501;-74
2024/04/15 12:08:51;;;;;;;6.63;3.10;;;871.10;870.40;;;;;;5388287;26;20008;-75
2024/04/15 12:11:21;;;;;;;8.68;3.55;;;871.20;870.40;;;;;;5398324;26;20436;-76